KAIK/AIK METAR and TAF weather

Enter ICAO airport designator
Station Type Date Time Source
KAIK METAR 2024/04/15 09:15 UTC NOAA

KAIK 150915Z AUTO 22006KT 10SM CLR 16/11 A3003 RMK AO2 T01610113


Station Type Date Time Source
KAIK Decoded METAR 2024/04/15 09:15 UTC NOAA

Station name not available
Apr 15, 2024 - 05:15 AM EDT / 2024.04.15 0915 UTC
Wind: from the SW (220 degrees) at 7 MPH (6 KT):0
Visibility: 10 mile(s):0
Sky conditions: clear
Temperature: 61.0 F (16.1 C)
Dew Point: 52.3 F (11.3 C)
Relative Humidity: 73%
Pressure (altimeter): 30.03 in. Hg (1016 hPa)
ob: KAIK 150915Z AUTO 22006KT 10SM CLR 16/11 A3003 RMK AO2 T01610113
cycle: 9

Station Type Date Time Source
KAIK TAF UTC NOAA

Error!

Example: see airport list